Time;durP1;ratioP1;P1;durP2;ratioP2;P2;SDS_P1;SDS_P2;PMS_P1;PMS_P2;Temp;Humidity;BMP_temperature;BMP_pressure;BME280_temperature;BME280_humidity;BME280_pressure;Samples;Min_cycle;Max_cycle;Signal;HPM_P1;HPM_P2
2022/09/25 00:01:16;;;;;;;10.13;3.10;;;;;;;10.57;100.00;101532.78;5030798;28;20037;-74
2022/09/25 00:03:42;;;;;;;10.57;3.45;;;;;;;10.48;100.00;101523.34;5032093;28;20096;-75
2022/09/25 00:06:19;;;;;;;11.10;2.92;;;;;;;10.46;100.00;101532.94;5030736;28;20034;-74
2022/09/25 00:08:45;;;;;;;7.50;2.88;;;;;;;10.39;100.00;101530.41;5021079;28;20115;-74
2022/09/25 00:11:31;;;;;;;8.20;3.20;;;;;;;10.34;100.00;101538.28;5032649;28;20112;-75
2022/09/25 00:13:58;;;;;;;6.72;2.97;;;;;;;10.31;100.00;101539.16;5033383;28;20064;-74
2022/09/25 00:16:27;;;;;;;7.78;3.08;;;;;;;10.24;100.00;101547.06;5031016;28;20537;-75
2022/09/25 00:21:38;;;;;;;9.07;3.17;;;;;;;10.16;100.00;101535.84;5031479;28;20043;-74
2022/09/25 00:24:08;;;;;;;8.00;2.78;;;;;;;10.14;100.00;101541.06;5032469;28;20033;-75
2022/09/25 00:26:36;;;;;;;11.73;2.85;;;;;;;10.15;100.00;101548.00;5031191;28;20025;-75
2022/09/25 00:29:03;;;;;;;12.10;3.28;;;;;;;10.17;100.00;101542.75;5033015;28;20032;-75
2022/09/25 00:31:29;;;;;;;8.82;3.20;;;;;;;10.13;100.00;101541.94;5030781;28;20026;-75
2022/09/25 00:34:01;;;;;;;8.88;2.70;;;;;;;10.14;100.00;101546.28;5032158;28;20438;-75
2022/09/25 00:36:27;;;;;;;7.97;2.90;;;;;;;10.11;100.00;101535.91;5031772;28;20043;-74
2022/09/25 00:38:53;;;;;;;11.70;3.15;;;;;;;10.07;100.00;101540.28;5032132;28;20026;-75
2022/09/25 00:41:21;;;;;;;7.97;3.10;;;;;;;10.06;100.00;101548.09;5031186;28;20014;-74
2022/09/25 00:43:50;;;;;;;7.43;2.70;;;;;;;10.03;100.00;101542.91;5030590;28;20103;-74
2022/09/25 00:46:21;;;;;;;11.73;3.55;;;;;;;10.02;100.00;101542.06;5017788;28;20025;-75
2022/09/25 00:49:01;;;;;;;12.48;3.22;;;;;;;10.01;100.00;101536.88;5032802;28;20064;-74
2022/09/25 00:51:33;;;;;;;12.07;3.80;;;;;;;10.00;100.00;101532.53;5030291;28;20021;-74
2022/09/25 00:54:03;;;;;;;14.17;3.47;;;;;;;10.02;100.00;101534.25;5032569;28;20037;-75
2022/09/25 00:56:34;;;;;;;9.25;3.10;;;;;;;10.02;100.00;101536.84;5029958;28;20492;-74
2022/09/25 00:58:59;;;;;;;11.82;3.05;;;;;;;9.99;100.00;101546.44;5030942;28;20382;-75
2022/09/25 01:01:25;;;;;;;10.07;3.67;;;;;;;9.98;100.00;101539.50;5030679;28;20095;-74
2022/09/25 01:03:51;;;;;;;6.95;3.03;;;;;;;9.97;100.00;101551.66;5032521;28;20401;-75
2022/09/25 01:06:17;;;;;;;11.90;3.05;;;;;;;9.93;100.00;101551.69;5030365;28;20057;-74
2022/09/25 01:08:44;;;;;;;10.05;3.00;;;;;;;9.90;100.00;101547.38;5032145;28;20101;-75
2022/09/25 01:11:10;;;;;;;7.78;3.33;;;;;;;9.87;100.00;101549.16;5031400;28;20073;-75
2022/09/25 01:13:37;;;;;;;10.48;3.47;;;;;;;9.82;100.00;101549.19;5030187;28;20116;-75
2022/09/25 01:16:17;;;;;;;15.50;3.90;;;;;;;9.78;100.00;101547.50;5032419;28;20156;-75
2022/09/25 01:18:45;;;;;;;9.70;3.20;;;;;;;9.80;100.00;101556.16;5031519;28;20027;-75
2022/09/25 01:21:23;;;;;;;10.32;3.25;;;;;;;9.75;100.00;101555.34;5032054;28;20034;-75
2022/09/25 01:24:17;;;;;;;12.40;3.45;;;;;;;9.69;100.00;101543.22;5019719;28;20029;-75
2022/09/25 01:26:43;;;;;;;10.13;3.40;;;;;;;9.60;100.00;101557.19;5031173;28;20017;-75
2022/09/25 01:29:17;;;;;;;11.43;3.80;;;;;;;9.56;100.00;101550.28;5030837;28;20423;-75
2022/09/25 01:31:52;;;;;;;14.93;3.75;;;;;;;9.55;100.00;101556.38;5030273;28;20477;-75
2022/09/25 01:34:25;;;;;;;10.38;3.58;;;;;;;9.50;100.00;101552.06;5030552;28;20033;-74
2022/09/25 01:36:56;;;;;;;;;;;;;;;9.47;100.00;101562.50;5032390;28;20041;-75
2022/09/25 01:39:28;;;;;;;12.43;3.35;;;;;;;9.44;100.00;101560.78;5031608;28;19920;-75
2022/09/25 01:42:01;;;;;;;10.40;3.22;;;;;;;9.36;100.00;101559.97;5030469;28;20026;-75
2022/09/25 01:44:30;;;;;;;7.93;3.47;;;;;;;9.34;100.00;101564.31;5031336;28;20030;-75
2022/09/25 01:47:04;;;;;;;10.75;3.10;;;;;;;9.33;100.00;101560.88;5030881;28;20470;-75
2022/09/25 01:49:49;;;;;;;14.77;3.13;;;;;;;9.24;100.00;101567.84;5031406;28;20040;-75
2022/09/25 01:52:19;;;;;;;6.72;3.17;;;;;;;9.19;100.00;101559.22;5030332;28;20049;-74
2022/09/25 01:54:50;;;;;;;13.45;4.38;;;;;;;9.18;100.00;101560.09;5028707;28;20033;-75
2022/09/25 01:57:25;;;;;;;17.33;3.30;;;;;;;9.18;100.00;101565.28;5031029;28;20523;-75
2022/09/25 02:00:09;;;;;;;11.18;3.33;;;;;;;9.17;100.00;101573.97;5018208;28;20053;-75
2022/09/25 02:02:42;;;;;;;12.77;3.60;;;;;;;9.11;100.00;101569.66;5029563;28;20473;-74
2022/09/25 02:05:21;;;;;;;15.25;3.33;;;;;;;9.05;100.00;101560.16;5031801;28;20056;-74
2022/09/25 02:07:55;;;;;;;7.82;3.25;;;;;;;9.07;100.00;101567.97;5031458;28;20462;-75
2022/09/25 02:10:34;;;;;;;8.85;3.47;;;;;;;9.03;100.00;101567.13;5033493;28;20382;-74
2022/09/25 02:13:12;;;;;;;7.15;3.10;;;;;;;8.99;100.00;101567.13;5034427;28;20067;-74
2022/09/25 02:15:42;;;;;;;7.45;3.33;;;;;;;8.97;100.00;101576.69;5034338;28;20041;-75
2022/09/25 02:21:08;;;;;;;9.82;4.20;;;;;;;8.86;100.00;101567.22;5035887;28;20110;-74
2022/09/25 02:23:39;;;;;;;6.93;2.90;;;;;;;8.82;100.00;101565.47;5031209;28;20026;-74
2022/09/25 02:26:10;;;;;;;8.52;3.20;;;;;;;8.81;100.00;101565.50;5035413;28;20030;-74
2022/09/25 02:28:35;;;;;;;10.48;3.00;;;;;;;8.68;100.00;101552.56;5034638;28;20030;-74
2022/09/25 02:31:04;;;;;;;8.48;3.30;;;;;;;8.66;100.00;101567.31;5034662;28;20465;-74
2022/09/25 02:33:30;;;;;;;10.35;3.53;;;;;;;8.67;100.00;101556.03;5033879;28;20052;-74
2022/09/25 02:35:55;;;;;;;8.77;3.03;;;;;;;8.67;100.00;101568.16;5035256;28;20487;-74
2022/09/25 02:38:20;;;;;;;12.55;3.60;;;;;;;8.62;100.00;101568.16;5033734;28;20029;-74
2022/09/25 02:41:02;;;;;;;8.27;2.90;;;;;;;8.58;100.00;101565.59;5034327;28;20112;-74
2022/09/25 02:43:44;;;;;;;10.52;3.13;;;;;;;8.50;100.00;101563.03;5030450;28;20042;-74
2022/09/25 02:46:26;;;;;;;8.25;3.05;;;;;;;8.53;100.00;101567.34;5034819;28;20041;-74
2022/09/25 02:49:01;;;;;;;10.77;3.17;;;;;;;8.47;100.00;101568.25;5034908;28;20075;-75
2022/09/25 02:52:03;;;;;;;9.82;3.35;;;;;;;8.47;100.00;101572.53;5029623;28;20036;-74
2022/09/25 02:54:33;;;;;;;9.05;3.20;;;;;;;8.41;100.00;101565.66;5029813;28;20405;-74
2022/09/25 02:57:11;;;;;;;8.88;2.95;;;;;;;8.36;100.00;101568.22;5033483;28;20096;-74
2022/09/25 02:59:43;;;;;;;9.73;3.45;;;;;;;8.32;100.00;101555.25;5032604;28;20021;-74
2022/09/25 03:02:10;;;;;;;10.25;3.80;;;;;;;8.29;100.00;101552.66;5032969;28;20029;-74
2022/09/25 03:04:37;;;;;;;7.53;3.00;;;;;;;8.30;100.00;101541.38;5032669;28;20040;-74
2022/09/25 03:07:04;;;;;;;14.23;3.97;;;;;;;8.26;100.00;101539.69;5033107;28;20552;-75
2022/09/25 03:09:33;;;;;;;9.82;4.25;;;;;;;8.23;100.00;101544.88;5034113;28;20068;-74
2022/09/25 03:12:02;;;;;;;10.93;4.05;;;;;;;8.20;100.00;101551.81;5033185;28;20075;-74
2022/09/25 03:14:27;;;;;;;7.93;3.80;;;;;;;8.19;100.00;101549.22;5033559;28;20021;-74
2022/09/25 03:16:55;;;;;;;12.07;4.60;;;;;;;8.14;100.00;101550.94;5034492;28;20067;-74
2022/09/25 03:19:21;;;;;;;10.68;3.85;;;;;;;8.14;100.00;101556.13;5033092;28;20377;-75
2022/09/25 03:21:48;;;;;;;11.57;4.22;;;;;;;8.08;100.00;101546.66;5033148;28;20021;-74
2022/09/25 03:24:14;;;;;;;13.43;4.10;;;;;;;8.03;100.00;101555.31;5034214;28;20096;-74
2022/09/25 03:26:40;;;;;;;9.57;4.05;;;;;;;8.01;100.00;101555.34;5032954;28;20350;-74
2022/09/25 03:29:05;;;;;;;9.73;3.95;;;;;;;7.98;100.00;101558.78;5034449;28;20346;-74
2022/09/25 03:31:31;;;;;;;12.60;4.40;;;;;;;8.00;100.00;101557.91;5033465;28;20048;-74
2022/09/25 03:33:56;;;;;;;7.80;3.78;;;;;;;7.96;100.00;101562.25;5032103;28;20029;-74
2022/09/25 03:36:26;;;;;;;10.75;4.63;;;;;;;7.89;100.00;101560.53;5033399;28;20033;-74
2022/09/25 03:38:57;;;;;;;9.80;4.25;;;;;;;7.87;100.00;101570.91;5034107;28;20076;-75
2022/09/25 03:41:25;;;;;;;15.27;4.40;;;;;;;7.84;100.00;101564.84;5032468;28;20013;-74
2022/09/25 03:43:50;;;;;;;10.27;4.53;;;;;;;7.84;100.00;101565.69;5032210;28;20021;-74
2022/09/25 03:46:19;;;;;;;11.25;4.97;;;;;;;7.81;100.00;101554.47;5033868;28;20033;-74
2022/09/25 03:48:45;;;;;;;16.20;5.18;;;;;;;7.79;100.00;101551.03;5032872;28;20014;-74
2022/09/25 03:51:11;;;;;;;15.15;5.20;;;;;;;7.73;100.00;101550.16;5033895;28;20377;-74
2022/09/25 03:53:36;;;;;;;14.38;5.35;;;;;;;7.71;100.00;101562.25;5031286;28;20146;-74
2022/09/25 03:56:05;;;;;;;11.82;5.18;;;;;;;7.69;100.00;101563.13;5033652;28;20029;-74
2022/09/25 03:58:31;;;;;;;12.50;5.40;;;;;;;7.67;100.00;101560.53;5032954;28;20057;-74
2022/09/25 04:00:56;;;;;;;13.30;5.22;;;;;;;7.65;100.00;101564.88;5029602;28;20079;-74
2022/09/25 04:03:27;;;;;;;15.57;6.75;;;;;;;7.63;100.00;101557.94;5032271;28;20033;-74
2022/09/25 04:05:54;;;;;;;11.13;6.03;;;;;;;7.61;100.00;101563.13;5032616;28;20100;-74
2022/09/25 04:08:19;;;;;;;11.55;6.03;;;;;;;7.63;100.00;101556.22;5032373;28;20025;-74
2022/09/25 04:10:45;;;;;;;12.52;6.20;;;;;;;7.61;100.00;101562.25;5032856;28;20027;-74
2022/09/25 04:13:11;;;;;;;16.48;7.30;;;;;;;7.54;100.00;101563.13;5032461;28;20041;-74
2022/09/25 04:15:38;;;;;;;12.02;6.97;;;;;;;7.50;100.00;101557.06;5031957;28;20131;-74
2022/09/25 04:18:03;;;;;;;12.25;6.72;;;;;;;7.44;100.00;101551.88;5033337;28;20044;-74
2022/09/25 04:20:28;;;;;;;13.40;6.80;;;;;;;7.42;100.00;101556.19;5032613;28;20457;-74
2022/09/25 04:22:54;;;;;;;14.88;8.23;;;;;;;7.40;100.00;101561.38;5030240;28;20474;-74
2022/09/25 04:25:24;;;;;;;17.48;9.00;;;;;;;7.39;100.00;101556.19;5033004;28;20036;-74
2022/09/25 04:27:50;;;;;;;18.67;8.93;;;;;;;7.35;100.00;101552.72;5031782;28;20048;-74
2022/09/25 04:30:15;;;;;;;17.33;9.27;;;;;;;7.34;100.00;101551.00;5032218;28;20350;-73
2022/09/25 04:35:24;;;;;;;16.83;8.35;;;;;;;7.27;100.00;101552.72;5032599;28;20040;-74
2022/09/25 04:37:50;;;;;;;16.42;9.85;;;;;;;7.23;100.00;101551.00;5032185;28;20017;-74
2022/09/25 04:40:15;;;;;;;18.80;10.13;;;;;;;7.22;100.00;101551.84;5032826;28;20030;-74
2022/09/25 04:42:41;;;;;;;18.60;9.43;;;;;;;7.14;100.00;101556.16;5030475;28;20117;-74
2022/09/25 04:45:07;;;;;;;18.25;9.57;;;;;;;7.24;100.00;101567.41;5032083;28;20036;-75
2022/09/25 04:47:33;;;;;;;16.85;10.18;;;;;;;7.19;100.00;101559.63;5032144;28;20025;-74
2022/09/25 04:49:58;;;;;;;15.65;9.85;;;;;;;7.17;100.00;101558.75;5031746;28;20022;-74
2022/09/25 04:52:23;;;;;;;17.13;9.57;;;;;;;7.15;100.00;101554.41;5030955;28;20077;-74
2022/09/25 04:54:49;;;;;;;14.27;9.50;;;;;;;7.09;100.00;101552.66;5031755;28;20047;-74
2022/09/25 04:57:18;;;;;;;18.58;10.32;;;;;;;7.07;100.00;101548.38;5031874;28;20044;-74
2022/09/25 04:59:44;;;;;;;16.27;10.00;;;;;;;7.08;100.00;101542.31;5031843;28;20021;-74
2022/09/25 05:02:11;;;;;;;15.00;10.23;;;;;;;7.02;100.00;101550.94;5031673;28;20440;-74
2022/09/25 05:04:36;;;;;;;15.02;10.13;;;;;;;7.00;100.00;101544.91;5030169;28;20029;-74
2022/09/25 05:07:02;;;;;;;18.75;10.45;;;;;;;6.96;100.00;101545.72;5032390;28;20028;-74
2022/09/25 05:09:27;;;;;;;16.92;10.52;;;;;;;6.96;100.00;101549.19;5031889;28;20048;-74
2022/09/25 05:11:52;;;;;;;16.73;10.68;;;;;;;6.94;100.00;101545.75;5030703;28;20022;-74
2022/09/25 05:14:18;;;;;;;18.80;11.35;;;;;;;6.96;100.00;101554.38;5031450;28;20040;-74
2022/09/25 05:16:46;;;;;;;19.48;10.82;;;;;;;6.90;100.00;101551.78;5031801;28;20025;-74
2022/09/25 05:19:11;;;;;;;18.35;10.70;;;;;;;6.86;100.00;101546.56;5031060;28;20481;-74
2022/09/25 05:21:36;;;;;;;19.40;11.32;;;;;;;6.87;100.00;101549.19;5030955;28;20115;-74
2022/09/25 05:24:02;;;;;;;18.05;11.35;;;;;;;6.88;100.00;101547.44;5030927;28;20025;-74
2022/09/25 05:26:28;;;;;;;19.88;12.20;;;;;;;6.82;100.00;101537.06;5030821;28;20370;-74
2022/09/25 05:28:54;;;;;;;19.98;11.18;;;;;;;6.84;100.00;101543.97;5030773;28;20037;-74
2022/09/25 05:31:20;;;;;;;20.27;11.38;;;;;;;6.82;100.00;101543.09;5031898;28;20036;-74
2022/09/25 05:33:45;;;;;;;16.30;10.55;;;;;;;6.80;100.00;101532.75;5030229;28;20107;-74
2022/09/25 05:36:11;;;;;;;20.50;11.23;;;;;;;6.82;100.00;101540.50;5031784;28;20014;-74
2022/09/25 05:38:38;;;;;;;16.67;10.27;;;;;;;6.81;100.00;101533.59;5031526;28;20030;-74
2022/09/25 05:41:08;;;;;;;23.45;11.15;;;;;;;6.80;100.00;101543.13;5031129;28;20022;-74
2022/09/25 05:43:38;;;;;;;19.55;10.93;;;;;;;6.80;100.00;101548.28;5029563;28;20466;-74
2022/09/25 05:46:03;;;;;;;19.25;11.25;;;;;;;6.80;100.00;101539.63;5031035;28;20048;-74
2022/09/25 05:48:28;;;;;;;16.83;11.25;;;;;;;6.79;100.00;101538.75;5030085;28;20426;-74
2022/09/25 05:50:55;;;;;;;18.15;10.45;;;;;;;6.79;100.00;101550.88;5032039;28;20422;-74
2022/09/25 05:53:21;;;;;;;20.88;11.25;;;;;;;6.78;100.00;101551.72;5027963;28;20053;-74
2022/09/25 05:55:54;;;;;;;18.50;10.82;;;;;;;6.76;100.00;101548.25;5031333;28;20022;-74
2022/09/25 05:58:20;;;;;;;19.08;10.93;;;;;;;6.76;100.00;101556.91;5031459;28;20033;-74
2022/09/25 06:00:47;;;;;;;17.23;11.02;;;;;;;6.74;100.00;101553.44;5030375;28;20029;-74
2022/09/25 06:03:13;;;;;;;17.02;11.15;;;;;;;6.75;100.00;101560.34;5030854;28;20080;-74
2022/09/25 06:05:39;;;;;;;16.52;11.07;;;;;;;6.78;100.00;101560.38;5030846;28;20018;-74
2022/09/25 06:08:05;;;;;;;15.93;10.82;;;;;;;6.80;100.00;101561.25;5031111;28;20086;-74
2022/09/25 06:10:30;;;;;;;18.33;11.45;;;;;;;6.84;100.00;101558.69;5030948;28;20032;-74
2022/09/25 06:13:00;;;;;;;17.67;12.00;;;;;;;6.89;100.00;101559.53;5029590;28;20032;-74
2022/09/25 06:15:34;;;;;;;18.92;11.45;;;;;;;6.98;100.00;101557.84;5030093;28;20388;-74
2022/09/25 06:18:00;;;;;;;18.13;11.75;;;;;;;7.01;100.00;101562.16;5031703;28;20037;-74
2022/09/25 06:20:25;;;;;;;18.33;12.25;;;;;;;7.04;100.00;101562.19;5030951;28;20034;-74
2022/09/25 06:22:54;;;;;;;20.08;11.45;;;;;;;7.13;100.00;101559.63;5030045;28;20033;-74
2022/09/25 06:25:25;;;;;;;18.85;12.80;;;;;;;7.15;100.00;101559.59;5031272;28;20119;-74
2022/09/25 06:27:59;;;;;;;20.15;12.23;;;;;;;7.21;100.00;101560.47;5031173;28;20492;-74
2022/09/25 06:30:32;;;;;;;23.08;13.20;;;;;;;7.28;100.00;101567.41;5030311;28;20053;-74
2022/09/25 06:32:59;;;;;;;19.35;12.52;;;;;;;7.33;100.00;101561.38;5030037;28;20156;-74
2022/09/25 06:35:30;;;;;;;24.48;12.98;;;;;;;7.38;100.00;101562.25;5030132;28;20053;-74
2022/09/25 06:37:57;;;;;;;19.70;12.80;;;;;;;7.43;100.00;101553.59;5029528;28;20022;-74
2022/09/25 06:40:25;;;;;;;25.45;14.07;;;;;;;7.48;100.00;101559.66;5030137;28;20029;-74
2022/09/25 06:43:01;;;;;;;20.55;13.52;;;;;;;7.55;100.00;101557.91;5029416;28;20485;-74
2022/09/25 06:45:28;;;;;;;22.88;12.95;;;;;;;7.60;100.00;101561.41;5020639;28;20025;-74
2022/09/25 06:47:59;;;;;;;25.08;14.30;;;;;;;7.67;100.00;101560.53;5030510;28;20031;-74
2022/09/25 06:50:30;;;;;;;25.45;14.57;;;;;;;7.73;100.00;101563.13;5029955;28;20030;-74
2022/09/25 06:52:56;;;;;;;28.65;14.38;;;;;;;7.80;100.00;101557.94;5030735;28;20052;-74
2022/09/25 06:55:21;;;;;;;25.80;14.75;;;;;;;7.90;100.00;101564.84;5031925;28;20030;-74
2022/09/25 06:57:47;;;;;;;26.85;15.38;;;;;;;7.95;100.00;101566.56;5032209;28;20492;-74
2022/09/25 07:00:12;;;;;;;27.48;15.77;;;;;;;7.98;100.00;101570.91;5034771;28;20021;-74
2022/09/25 07:05:22;;;;;;;24.15;15.75;;;;;;;8.18;100.00;101571.75;5033240;28;20163;-74
2022/09/25 07:07:47;;;;;;;29.85;16.08;;;;;;;8.20;100.00;101564.78;5033303;28;20490;-74
2022/09/25 07:10:12;;;;;;;30.17;16.67;;;;;;;8.30;100.00;101569.97;5028975;28;20025;-74
2022/09/25 07:12:40;;;;;;;27.40;16.52;;;;;;;8.35;100.00;101566.50;5033309;28;20547;-74
2022/09/25 07:15:06;;;;;;;24.63;15.30;;;;;;;8.40;100.00;101572.59;5034473;28;20101;-74
2022/09/25 07:17:31;;;;;;;25.85;15.50;;;;;;;8.51;100.00;101572.56;5032334;28;20153;-74
2022/09/25 07:19:56;;;;;;;23.75;16.48;;;;;;;8.62;100.00;101572.50;5034280;28;20036;-74
2022/09/25 07:22:21;;;;;;;27.77;16.52;;;;;;;8.66;100.00;101567.31;5033446;28;20108;-74
2022/09/25 07:24:47;;;;;;;22.27;14.35;;;;;;;8.68;100.00;101577.69;5033638;28;20025;-74
2022/09/25 07:27:13;;;;;;;22.90;14.18;;;;;;;8.75;100.00;101566.38;5033999;28;20079;-74
2022/09/25 07:29:38;;;;;;;21.52;14.88;;;;;;;8.91;100.00;101583.66;5032964;28;20025;-74
2022/09/25 07:32:03;;;;;;;27.90;14.13;;;;;;;8.91;100.00;101573.25;5033479;28;20037;-74
2022/09/25 07:34:29;;;;;;;24.98;14.50;;;;;;;9.05;100.00;101588.78;5033277;28;20148;-74
2022/09/25 07:36:54;;;;;;;23.30;14.43;;;;;;;9.12;100.00;101587.88;5030738;28;20033;-74
2022/09/25 07:39:19;;;;;;;22.13;14.07;;;;;;;9.16;100.00;101583.53;5030955;28;20488;-74
2022/09/25 07:41:45;;;;;;;24.65;13.80;;;;;;;9.22;100.00;101582.59;5033053;28;20021;-75
2022/09/25 07:44:10;;;;;;;20.35;13.60;;;;;;;9.32;100.00;101589.50;5023272;28;20470;-75
2022/09/25 07:46:36;;;;;;;24.63;13.07;;;;;;;9.44;100.00;101586.81;5022860;28;20021;-74
2022/09/25 07:49:04;;;;;;;20.70;12.13;;;;;;;9.48;100.00;101585.94;5028500;28;20072;-74
2022/09/25 07:51:29;;;;;;;20.15;12.68;;;;;;;9.54;100.00;101578.03;5027495;28;20025;-74
2022/09/25 07:53:54;;;;;;;18.33;11.48;;;;;;;9.57;100.00;101579.78;5031854;28;20151;-74
2022/09/25 07:56:20;;;;;;;22.45;11.77;;;;;;;9.72;100.00;101579.66;5033317;28;20079;-74
2022/09/25 07:58:45;;;;;;;16.73;10.20;;;;;;;9.81;100.00;101574.38;5033744;28;20139;-74
2022/09/25 08:01:12;;;;;;;16.40;10.13;;;;;;;9.92;100.00;101566.47;5032959;28;20018;-74
2022/09/25 08:03:38;;;;;;;19.05;10.52;;;;;;;10.03;100.00;101574.16;5032985;28;20029;-74
2022/09/25 08:06:10;;;;;;;19.05;9.93;;;;;;;10.13;100.00;101577.56;5031136;28;20354;-74
2022/09/25 08:08:36;;;;;;;12.23;7.90;;;;;;;10.16;100.00;101572.31;5032163;28;20039;-74
2022/09/25 08:11:05;;;;;;;14.20;8.18;;;;;;;10.24;100.00;101567.91;5033024;28;20029;-74
2022/09/25 08:13:32;;;;;;;10.60;7.57;;;;;;;10.32;100.00;101561.75;5032635;28;20428;-74
2022/09/25 08:15:57;;;;;;;13.85;8.20;;;;;;;10.35;100.00;101560.00;5031830;28;20354;-74
2022/09/25 08:18:23;;;;;;;15.50;7.20;;;;;;;10.50;100.00;101563.28;5032660;28;20018;-74
2022/09/25 08:20:48;;;;;;;11.90;6.68;;;;;;;10.59;100.00;101564.91;5032498;28;20022;-74
2022/09/25 08:23:14;;;;;;;11.18;6.40;;;;;;;10.64;100.00;101557.91;5033011;28;20500;-74
2022/09/25 08:25:39;;;;;;;10.60;6.10;;;;;;;10.76;100.00;101562.97;5030217;28;20465;-74
2022/09/25 08:28:05;;;;;;;11.27;6.40;;;;;;;10.86;100.00;101568.94;5032392;28;20807;-74
2022/09/25 08:30:30;;;;;;;13.90;5.55;;;;;;;10.93;100.00;101565.34;5032438;28;20496;-73
2022/09/25 08:32:56;;;;;;;10.73;4.80;;;;;;;11.01;100.00;101563.50;5029870;28;20100;-74
2022/09/25 08:35:21;;;;;;;10.85;4.40;;;;;;;11.07;100.00;101561.69;5031019;28;20029;-74
2022/09/25 08:37:47;;;;;;;14.60;4.10;;;;;;;11.11;100.00;101561.63;5032277;28;20022;-75
2022/09/25 08:40:26;;;;;;;12.07;3.65;;;;;;;11.24;100.00;101564.91;5029358;28;20029;-74
2022/09/25 08:42:53;;;;;;;10.70;4.40;;;;;;;11.34;100.00;101571.72;5029142;28;20026;-74
2022/09/25 08:51:47;;;;;;;3.90;2.50;;;;;;;11.64;100.00;101569.53;5029834;28;20033;-74
2022/09/25 08:54:19;;;;;;;3.90;2.30;;;;;;;11.72;100.00;101573.75;5025444;28;20048;-74
2022/09/25 08:56:49;;;;;;;6.38;2.35;;;;;;;11.82;100.00;101574.44;5030152;28;20365;-74
2022/09/25 08:59:25;;;;;;;14.55;2.92;;;;;;;11.98;100.00;101579.47;5032028;28;20488;-74
2022/09/25 09:01:54;;;;;;;6.97;2.33;;;;;;;12.06;100.00;101561.88;5031481;28;20110;-74
2022/09/25 09:04:40;;;;;;;9.65;2.00;;;;;;;12.15;100.00;101564.31;5030203;28;20374;-74
2022/09/25 09:07:14;;;;;;;6.65;1.60;;;;;;;12.24;100.00;101558.94;5034650;28;20037;-74
2022/09/25 09:09:46;;;;;;;5.85;1.80;;;;;;;12.37;100.00;101563.03;5031255;28;20362;-74
2022/09/25 09:12:34;;;;;;;7.20;1.73;;;;;;;12.55;100.00;101561.78;5030551;28;20025;-74
2022/09/25 09:15:14;;;;;;;6.32;2.03;;;;;;;12.69;100.00;101561.53;5023309;28;20551;-74
2022/09/25 09:17:42;;;;;;;5.22;1.88;;;;;;;12.86;100.00;101556.78;5030619;28;20067;-75
2022/09/25 09:20:22;;;;;;;8.65;1.75;;;;;;;13.01;100.00;101557.34;5031714;28;20029;-75
2022/09/25 09:22:51;;;;;;;7.68;2.70;;;;;;;12.99;100.00;101554.78;5030791;28;20113;-74
2022/09/25 09:25:28;;;;;;;6.50;1.67;;;;;;;13.04;100.00;101563.38;5031305;28;20030;-74
2022/09/25 09:27:53;;;;;;;4.70;1.80;;;;;;;13.19;100.00;101556.94;5032346;28;20112;-75
2022/09/25 09:30:30;;;;;;;7.33;1.30;;;;;;;13.31;96.85;101547.97;5031251;28;20533;-74
2022/09/25 09:33:07;;;;;;;5.70;2.00;;;;;;;13.53;98.39;101546.53;5030689;28;20284;-75
2022/09/25 09:36:01;;;;;;;5.60;1.80;;;;;;;13.84;98.38;101553.66;5031284;28;20563;-74
2022/09/25 09:38:45;;;;;;;9.27;1.48;;;;;;;14.23;94.89;101545.63;5018553;28;20125;-74
2022/09/25 09:41:37;;;;;;;4.97;1.30;;;;;;;14.60;96.92;101545.47;5030515;28;20033;-73
2022/09/25 09:44:22;;;;;;;6.57;1.77;;;;;;;14.78;95.03;101543.22;5032215;28;20029;-74
2022/09/25 09:47:01;;;;;;;6.45;1.48;;;;;;;14.75;89.96;101546.81;5030315;28;20033;-74
2022/09/25 09:49:35;;;;;;;5.28;1.33;;;;;;;14.62;92.84;101548.94;5029866;28;20057;-74
2022/09/25 09:52:13;;;;;;;3.20;1.10;;;;;;;14.61;90.36;101538.47;5031494;28;20401;-76
2022/09/25 09:55:03;;;;;;;8.38;2.05;;;;;;;14.58;94.69;101542.03;5031271;28;20036;-77
2022/09/25 09:57:37;;;;;;;3.75;1.10;;;;;;;14.46;85.80;101531.88;5029808;28;20025;-74
2022/09/25 10:00:05;;;;;;;5.28;1.20;;;;;;;14.48;85.73;101530.91;5030814;28;20457;-74
2022/09/25 10:02:52;;;;;;;3.83;0.90;;;;;;;14.49;89.68;101537.03;5031157;28;20455;-74
2022/09/25 10:05:24;;;;;;;8.38;1.80;;;;;;;14.51;85.52;101533.47;5029381;28;20033;-74
2022/09/25 10:07:51;;;;;;;4.55;1.20;;;;;;;14.54;81.32;101529.91;5030987;28;20033;-74
2022/09/25 10:10:17;;;;;;;5.80;1.30;;;;;;;14.60;83.59;101527.13;5030910;28;20481;-74
2022/09/25 10:12:51;;;;;;;4.90;1.50;;;;;;;14.77;83.77;101526.59;5031136;28;20048;-74
2022/09/25 10:15:43;;;;;;;5.15;1.30;;;;;;;15.00;85.46;101518.03;5030634;28;20025;-74
2022/09/25 10:18:10;;;;;;;4.55;1.15;;;;;;;15.36;82.60;101520.41;5029037;28;20037;-73
2022/09/25 10:20:48;;;;;;;2.92;0.93;;;;;;;15.68;77.17;101522.84;5028159;28;20718;-74
2022/09/25 10:23:38;;;;;;;2.92;1.10;;;;;;;16.00;79.09;101523.50;5030911;28;20064;-74
2022/09/25 10:26:29;;;;;;;3.90;1.00;;;;;;;15.91;81.04;101516.78;5031485;28;20022;-74
2022/09/25 10:28:59;;;;;;;4.55;1.10;;;;;;;15.48;78.86;101521.78;5030343;28;20034;-74
2022/09/25 10:31:31;;;;;;;4.72;1.13;;;;;;;15.00;77.67;101523.28;5033622;28;20079;-74
2022/09/25 10:34:03;;;;;;;3.88;1.00;;;;;;;14.59;81.07;101528.03;5034926;28;20124;-74
2022/09/25 10:36:34;;;;;;;4.28;1.00;;;;;;;14.30;83.83;101526.19;5033942;28;20017;-74
2022/09/25 10:39:04;;;;;;;4.82;1.25;;;;;;;14.43;83.07;101513.59;5035022;28;20060;-74
2022/09/25 10:41:41;;;;;;;3.85;1.02;;;;;;;14.77;84.21;101520.50;5033636;28;20097;-74
2022/09/25 10:44:19;;;;;;;3.45;1.02;;;;;;;15.22;85.29;101518.22;5033861;28;20111;-73
2022/09/25 10:52:14;;;;;;;4.20;0.88;;;;;;;15.77;77.85;101516.44;5024911;28;20044;-74
2022/09/25 10:54:40;;;;;;;6.68;1.80;;;;;;;16.02;75.55;101515.56;5034027;28;20033;-73
2022/09/25 10:57:37;;;;;;;4.05;1.02;;;;;;;15.87;73.03;101514.34;5034142;28;20385;-74
2022/09/25 11:00:25;;;;;;;3.63;1.00;;;;;;;15.29;74.13;101519.75;5034568;28;20033;-73
2022/09/25 11:02:55;;;;;;;2.70;0.90;;;;;;;14.83;72.54;101521.19;5033885;28;20045;-73
2022/09/25 11:05:32;;;;;;;5.38;1.02;;;;;;;14.79;77.97;101524.81;5020564;28;20433;-74
2022/09/25 11:08:04;;;;;;;3.70;1.40;;;;;;;15.34;78.21;101516.97;5034617;28;20384;-73
2022/09/25 11:10:34;;;;;;;4.30;1.02;;;;;;;15.88;72.19;101513.41;5033172;28;20025;-73
2022/09/25 11:13:08;;;;;;;4.22;0.90;;;;;;;16.34;67.89;101504.72;5034427;28;20184;-73
2022/09/25 11:15:38;;;;;;;6.30;1.05;;;;;;;16.80;69.39;101508.28;5033957;28;20104;-73
2022/09/25 11:18:05;;;;;;;2.75;1.00;;;;;;;17.06;66.06;101507.25;5033657;28;20412;-73
2022/09/25 11:20:31;;;;;;;3.85;0.80;;;;;;;17.37;66.05;101510.44;5033738;28;20116;-74
2022/09/25 11:23:29;;;;;;;2.45;0.82;;;;;;;17.47;66.15;101509.13;5034240;28;20393;-73
2022/09/25 11:26:16;;;;;;;3.28;0.82;;;;;;;17.25;67.48;101515.28;5033406;28;20083;-73
2022/09/25 11:28:48;;;;;;;4.30;1.00;;;;;;;17.29;63.76;101511.59;5033886;28;20037;-74
2022/09/25 11:31:36;;;;;;;5.60;1.63;;;;;;;17.42;69.10;101501.41;5033400;28;20029;-74
2022/09/25 11:34:11;;;;;;;3.45;1.10;;;;;;;17.83;67.84;101501.47;5023347;28;20033;-69
2022/09/25 11:36:51;;;;;;;3.75;1.13;;;;;;;18.40;62.50;101499.78;5033628;28;20029;-76
2022/09/25 11:42:44;;;;;;;5.10;0.90;;;;;;;20.23;54.89;101483.72;5022902;28;20083;-74
2022/09/25 11:45:35;;;;;;;3.83;1.00;;;;;;;21.26;54.35;101488.63;5022256;28;20025;-74
2022/09/25 11:48:11;;;;;;;4.78;1.33;;;;;;;21.35;52.85;101485.44;5032727;28;20079;-74
2022/09/25 11:51:04;;;;;;;5.18;1.08;;;;;;;20.05;57.51;101484.72;5033160;28;20025;-74
2022/09/25 11:54:05;;;;;;;4.13;0.90;;;;;;;18.72;62.73;101484.28;5032100;28;20068;-73
2022/09/25 11:56:57;;;;;;;2.67;0.88;;;;;;;17.72;62.61;101485.22;5005396;28;20041;-73
2022/09/25 11:59:37;;;;;;;2.20;0.90;;;;;;;18.05;60.54;101479.41;5001498;28;20064;-74